Time;durP1;ratioP1;P1;durP2;ratioP2;P2;SDS_P1;SDS_P2;PMS_P1;PMS_P2;Temp;Humidity;BMP_temperature;BMP_pressure;BME280_temperature;BME280_humidity;BME280_pressure;Samples;Min_cycle;Max_cycle;Signal;HPM_P1;HPM_P2
2021/10/10 00:00:44;;;;;;;16.65;8.55;;;8.10;99.90;;;;;;6677321;89;20863;-78
2021/10/10 00:10:44;;;;;;;16.67;8.75;;;7.80;99.90;;;;;;6672444;89;20202;-78
2021/10/10 00:20:45;;;;;;;17.90;8.00;;;7.90;99.90;;;;;;6674262;88;20658;-79
2021/10/10 00:30:45;;;;;;;14.57;8.20;;;7.60;99.90;;;;;;6677011;89;20314;-80
2021/10/10 00:40:47;;;;;;;16.42;8.43;;;7.60;99.90;;;;;;6672686;88;20328;-78
2021/10/10 00:50:48;;;;;;;15.20;9.50;;;7.60;99.90;;;;;;6672756;89;20545;-81
2021/10/10 01:00:51;;;;;;;17.27;9.00;;;7.70;99.90;;;;;;6696576;88;20246;-80
2021/10/10 01:10:51;;;;;;;15.88;8.35;;;7.50;99.90;;;;;;6739794;88;20205;-81
2021/10/10 01:20:55;;;;;;;16.23;9.73;;;7.30;99.90;;;;;;6677645;88;20249;-81
2021/10/10 01:30:55;;;;;;;16.33;8.48;;;7.00;99.90;;;;;;6693506;89;20627;-79
2021/10/10 01:40:56;;;;;;;18.00;8.85;;;7.00;99.90;;;;;;6698657;89;20206;-78
2021/10/10 01:50:57;;;;;;;22.23;9.15;;;6.90;99.90;;;;;;6675650;89;20194;-79
2021/10/10 02:00:58;;;;;;;17.30;9.18;;;7.00;99.90;;;;;;6676898;89;20612;-78
2021/10/10 02:10:59;;;;;;;15.65;8.57;;;6.90;99.90;;;;;;6677430;89;20204;-78
2021/10/10 02:20:59;;;;;;;17.20;8.65;;;6.90;99.90;;;;;;6673876;89;20200;-78
2021/10/10 02:31:00;;;;;;;19.40;10.00;;;6.80;99.90;;;;;;6676735;88;20340;-78
2021/10/10 02:41:00;;;;;;;19.55;9.25;;;6.70;99.90;;;;;;6677355;88;20635;-78
2021/10/10 02:51:01;;;;;;;16.70;8.90;;;6.90;99.90;;;;;;6676696;89;20727;-78
2021/10/10 03:01:02;;;;;;;14.40;8.60;;;6.70;99.90;;;;;;6676625;89;20218;-78
2021/10/10 03:11:03;;;;;;;15.90;8.95;;;6.50;99.90;;;;;;6676771;89;20220;-77
2021/10/10 03:21:04;;;;;;;13.55;8.20;;;6.30;99.90;;;;;;6672548;89;20681;-78
2021/10/10 03:31:05;;;;;;;17.60;9.20;;;6.40;99.90;;;;;;6677679;89;20248;-79
2021/10/10 03:41:06;;;;;;;15.57;8.40;;;6.60;99.90;;;;;;6674124;88;20191;-78
2021/10/10 03:51:07;;;;;;;17.35;8.75;;;6.30;99.90;;;;;;6639871;89;21069;-78
2021/10/10 04:01:07;;;;;;;15.20;7.80;;;6.10;99.90;;;;;;6641137;89;20340;-78
2021/10/10 04:11:08;;;;;;;19.75;8.93;;;5.90;99.90;;;;;;6674524;89;21298;-77
2021/10/10 04:21:09;;;;;;;17.98;9.77;;;5.80;99.90;;;;;;6677117;89;20203;-77
2021/10/10 04:31:10;;;;;;;20.12;9.57;;;5.80;99.90;;;;;;6671301;89;20260;-77
2021/10/10 04:41:10;;;;;;;18.25;9.10;;;5.60;99.90;;;;;;6672427;88;20227;-76
2021/10/10 04:51:11;;;;;;;17.58;9.75;;;5.50;99.90;;;;;;6673480;89;20693;-78
2021/10/10 05:01:11;;;;;;;25.00;11.60;;;5.40;99.90;;;;;;6673900;89;20382;-78
2021/10/10 05:11:12;;;;;;;23.08;11.20;;;5.50;99.90;;;;;;6667878;88;21522;-78
2021/10/10 05:21:12;;;;;;;20.27;10.18;;;5.30;99.90;;;;;;6672390;88;20195;-77
2021/10/10 05:31:13;;;;;;;25.17;10.93;;;5.00;99.90;;;;;;6672462;88;20195;-78
2021/10/10 05:41:14;;;;;;;22.48;11.40;;;4.90;99.90;;;;;;6668264;88;20253;-78
2021/10/10 05:51:14;;;;;;;23.10;11.52;;;5.30;99.90;;;;;;6668311;88;20195;-78
2021/10/10 06:01:15;;;;;;;19.95;10.98;;;5.40;99.90;;;;;;6668918;88;20533;-78
2021/10/10 06:11:15;;;;;;;26.85;11.38;;;5.40;99.90;;;;;;6676027;88;20188;-78
2021/10/10 06:21:16;;;;;;;23.48;11.80;;;5.20;99.90;;;;;;6678997;88;20530;-79
2021/10/10 06:31:17;;;;;;;24.52;12.23;;;5.30;99.90;;;;;;6672132;88;20329;-81
2021/10/10 06:41:20;;;;;;;27.60;12.95;;;5.40;99.90;;;;;;6673884;88;20244;-78
2021/10/10 06:51:20;;;;;;;28.83;13.50;;;5.50;99.90;;;;;;6672578;89;20191;-79
2021/10/10 07:01:21;;;;;;;36.20;14.50;;;6.00;99.90;;;;;;6668635;88;20199;-78
2021/10/10 07:11:22;;;;;;;33.78;15.05;;;6.10;99.90;;;;;;6673976;88;20208;-79
2021/10/10 07:31:29;;;;;;;26.00;12.88;;;6.60;99.90;;;;;;6679030;89;21029;-80
2021/10/10 07:41:35;;;;;;;25.83;12.00;;;7.10;99.90;;;;;;6676219;88;20271;-80
2021/10/10 07:51:37;;;;;;;20.65;10.60;;;8.00;99.90;;;;;;6675643;88;20293;-79
2021/10/10 08:01:37;;;;;;;19.23;10.23;;;9.40;99.90;;;;;;6674222;88;20305;-80
2021/10/10 08:11:38;;;;;;;17.37;9.93;;;10.10;99.90;;;;;;6674017;89;20191;-80
2021/10/10 08:21:38;;;;;;;15.20;9.27;;;10.90;99.90;;;;;;6675092;88;20318;-80
2021/10/10 08:31:39;;;;;;;18.65;10.70;;;10.90;99.90;;;;;;6674783;88;20216;-81
2021/10/10 08:41:42;;;;;;;19.92;9.45;;;11.50;99.90;;;;;;6671497;88;20236;-80
2021/10/10 08:51:43;;;;;;;17.80;9.77;;;11.60;99.90;;;;;;6671318;88;20243;-80
2021/10/10 09:01:43;;;;;;;15.50;9.30;;;11.80;99.90;;;;;;6669726;89;20319;-80
2021/10/10 09:11:44;;;;;;;18.63;8.77;;;13.40;99.90;;;;;;6675588;89;20742;-80
2021/10/10 09:21:59;;;;;;;14.48;8.38;;;13.80;99.90;;;;;;6675737;89;20237;-80
2021/10/10 09:32:20;;;;;;;15.20;8.50;;;14.60;99.90;;;;;;6675137;89;20239;-80
2021/10/10 09:42:31;;;;;;;13.35;8.15;;;15.80;99.90;;;;;;6677442;89;20519;-80
2021/10/10 09:52:32;;;;;;;13.10;7.50;;;15.10;99.90;;;;;;6678831;89;20212;-79
2021/10/10 10:02:43;;;;;;;14.27;7.77;;;15.10;99.90;;;;;;6682119;78;20208;-79
2021/10/10 10:12:44;;;;;;;12.65;7.40;;;17.20;99.90;;;;;;6683461;88;20211;-78
2021/10/10 10:22:46;;;;;;;12.55;7.85;;;16.40;99.90;;;;;;6680378;88;20184;-78
2021/10/10 10:32:47;;;;;;;16.33;7.90;;;16.00;99.90;;;;;;6682934;89;20252;-77
2021/10/10 10:42:52;;;;;;;11.70;6.40;;;16.60;99.90;;;;;;6679592;89;20693;-78
2021/10/10 10:52:59;;;;;;;14.93;6.00;;;17.70;99.80;;;;;;6679022;89;20182;-78
2021/10/10 11:03:14;;;;;;;9.40;5.85;;;18.30;98.30;;;;;;6682360;88;20626;-78
2021/10/10 11:13:25;;;;;;;11.35;5.25;;;18.50;97.50;;;;;;6683325;89;20194;-78
2021/10/10 11:23:26;;;;;;;11.40;5.18;;;19.20;94.00;;;;;;6682934;89;20312;-79
2021/10/10 11:33:35;;;;;;;9.30;5.18;;;19.80;93.50;;;;;;6686542;89;20703;-79
2021/10/10 11:43:36;;;;;;;9.20;5.00;;;22.70;89.10;;;;;;6691860;89;20198;-78
2021/10/10 11:53:44;;;;;;;11.12;4.70;;;23.20;78.80;;;;;;6688166;89;20206;-78
2021/10/10 12:03:48;;;;;;;7.15;4.32;;;23.50;78.40;;;;;;6684677;88;20179;-78
2021/10/10 12:13:53;;;;;;;;;;;21.70;78.80;;;;;;6682142;89;20237;-79
2021/10/10 12:24:06;;;;;;;;;;;22.00;78.10;;;;;;6686878;89;20075;-79
2021/10/10 12:34:10;;;;;;;8.68;4.30;;;22.10;76.80;;;;;;6685209;89;20046;-79
2021/10/10 12:44:12;;;;;;;8.52;4.12;;;23.20;73.70;;;;;;6682836;89;20195;-79
2021/10/10 12:54:19;;;;;;;9.80;4.40;;;22.50;74.40;;;;;;6679930;89;20194;-79
2021/10/10 13:04:20;;;;;;;7.68;3.87;;;21.30;75.00;;;;;;6683079;89;20210;-79
2021/10/10 13:14:22;;;;;;;8.35;4.22;;;22.50;75.20;;;;;;6689823;88;20255;-79
2021/10/10 13:24:23;;;;;;;6.55;4.05;;;23.40;71.60;;;;;;6693755;88;20226;-79
2021/10/10 13:34:24;;;;;;;6.90;3.65;;;23.60;71.00;;;;;;6689968;88;20338;-79
2021/10/10 13:44:25;;;;;;;9.70;4.07;;;22.50;69.10;;;;;;6686066;88;20198;-79
2021/10/10 13:54:25;;;;;;;6.57;4.00;;;23.00;73.90;;;;;;6689757;88;20202;-79
2021/10/10 14:04:26;;;;;;;6.43;4.25;;;24.10;72.20;;;;;;6691591;88;20239;-79
2021/10/10 14:14:26;;;;;;;8.55;4.28;;;23.40;71.30;;;;;;6688609;88;20200;-79
2021/10/10 14:24:27;;;;;;;6.57;4.15;;;22.90;73.80;;;;;;6685400;88;20228;-79
2021/10/10 14:34:28;;;;;;;7.00;3.78;;;23.00;72.80;;;;;;6685859;89;20316;-78
2021/10/10 14:45:13;;;;;;;7.78;4.07;;;22.30;71.60;;;;;;6686428;89;20681;-79
2021/10/10 14:54:52;;;;;;;9.13;4.00;;;21.70;72.80;;;;;;6684207;88;20610;-79
2021/10/10 15:04:52;;;;;;;7.97;4.10;;;21.40;74.10;;;;;;6686339;88;20260;-79
2021/10/10 15:14:54;;;;;;;8.52;4.35;;;20.70;74.30;;;;;;6686638;89;20549;-79
2021/10/10 15:24:55;;;;;;;8.13;3.95;;;20.90;76.30;;;;;;6686691;89;20202;-79
2021/10/10 15:34:56;;;;;;;7.33;3.87;;;21.40;75.00;;;;;;6686428;88;20331;-79
2021/10/10 15:44:58;;;;;;;11.02;4.60;;;20.90;76.10;;;;;;6681965;89;20205;-78
2021/10/10 15:54:59;;;;;;;8.55;5.12;;;20.10;76.20;;;;;;6680280;89;20234;-80
2021/10/10 16:05:20;;;;;;;6.85;4.15;;;19.70;81.20;;;;;;6700613;77;20282;-80
2021/10/10 16:15:21;;;;;;;8.95;4.00;;;19.20;82.10;;;;;;6718266;88;20182;-81
2021/10/10 16:25:23;;;;;;;7.70;4.18;;;18.60;84.40;;;;;;6708423;88;20256;-81
2021/10/10 16:45:27;;;;;;;11.57;6.40;;;16.80;91.60;;;;;;6695330;88;20589;-80
2021/10/10 16:55:28;;;;;;;9.67;5.30;;;15.80;95.50;;;;;;6709666;88;20221;-79
2021/10/10 17:05:29;;;;;;;9.88;5.72;;;14.90;99.50;;;;;;6712699;88;20378;-79
2021/10/10 17:15:30;;;;;;;9.70;5.65;;;14.40;99.90;;;;;;6717766;88;20252;-80
2021/10/10 17:25:30;;;;;;;9.23;5.57;;;13.60;99.90;;;;;;6695395;89;20211;-82
2021/10/10 17:35:31;;;;;;;11.97;5.50;;;13.20;99.90;;;;;;6694069;88;21188;-82
2021/10/10 17:45:32;;;;;;;12.68;6.00;;;12.90;99.90;;;;;;6708713;88;20547;-81
2021/10/10 17:55:32;;;;;;;13.60;7.15;;;12.50;99.90;;;;;;6694428;88;20650;-82
2021/10/10 18:15:52;;;;;;;12.07;6.53;;;11.90;99.90;;;;;;6697275;88;20182;-82
2021/10/10 18:25:52;;;;;;;9.80;6.22;;;11.40;99.90;;;;;;6711800;88;20312;-80
2021/10/10 18:35:53;;;;;;;11.50;6.28;;;11.10;99.90;;;;;;6698087;88;20649;-80
2021/10/10 18:45:53;;;;;;;14.82;8.15;;;10.90;99.90;;;;;;6662623;89;20246;-79
2021/10/10 18:55:54;;;;;;;12.73;6.93;;;10.80;99.90;;;;;;6697334;88;20199;-82
2021/10/10 19:05:55;;;;;;;11.82;7.47;;;10.60;99.90;;;;;;6695613;87;20211;-82
2021/10/10 19:15:55;;;;;;;13.73;7.53;;;10.30;99.90;;;;;;6696185;89;20210;-82
2021/10/10 19:25:56;;;;;;;13.07;7.30;;;10.10;99.90;;;;;;6696551;88;20213;-81
2021/10/10 19:35:57;;;;;;;20.85;10.60;;;10.10;99.90;;;;;;6709759;88;20224;-82
2021/10/10 19:45:57;;;;;;;13.88;7.50;;;10.00;99.90;;;;;;6696394;89;20211;-81
2021/10/10 19:55:58;;;;;;;15.90;7.95;;;9.90;99.90;;;;;;6710890;88;20227;-82
2021/10/10 20:06:04;;;;;;;15.35;8.40;;;9.70;99.90;;;;;;6696534;89;20716;-81
2021/10/10 20:16:07;;;;;;;16.42;8.50;;;9.60;99.90;;;;;;6699009;88;20199;-81
2021/10/10 20:26:08;;;;;;;16.92;8.00;;;9.60;99.90;;;;;;6710877;88;20303;-82
2021/10/10 20:36:12;;;;;;;15.07;7.45;;;9.40;99.90;;;;;;6697094;89;20199;-81
2021/10/10 20:46:13;;;;;;;17.60;7.72;;;9.30;99.90;;;;;;6711317;88;20182;-80
2021/10/10 20:56:14;;;;;;;15.73;7.40;;;9.00;99.90;;;;;;6714002;88;20698;-81
2021/10/10 21:06:15;;;;;;;13.93;7.93;;;9.20;99.90;;;;;;6699482;89;20300;-81
2021/10/10 21:16:16;;;;;;;15.82;7.75;;;9.30;99.90;;;;;;6697374;88;20319;-82
2021/10/10 21:26:17;;;;;;;13.27;8.07;;;9.10;99.90;;;;;;6698318;89;20182;-81
2021/10/10 21:36:18;;;;;;;14.80;8.23;;;9.40;99.90;;;;;;6700929;88;20231;-82
2021/10/10 21:46:18;;;;;;;14.07;7.65;;;9.10;99.90;;;;;;6715863;88;20244;-82
2021/10/10 21:56:19;;;;;;;14.23;8.07;;;8.90;99.90;;;;;;6716753;88;20672;-81
2021/10/10 22:06:19;;;;;;;15.55;8.55;;;8.80;99.90;;;;;;6713717;88;20206;-80
2021/10/10 22:16:20;;;;;;;18.65;9.45;;;8.60;99.90;;;;;;6711862;88;20210;-81
2021/10/10 22:36:22;;;;;;;17.40;10.15;;;8.50;99.90;;;;;;6698442;89;20171;-81
2021/10/10 22:46:22;;;;;;;19.05;10.43;;;8.40;99.90;;;;;;6698288;88;20252;-80
2021/10/10 22:56:24;;;;;;;22.90;11.65;;;8.20;99.90;;;;;;6698764;89;20202;-81
2021/10/10 23:06:25;;;;;;;24.05;11.70;;;8.10;99.90;;;;;;6712863;88;20197;-81
2021/10/10 23:16:25;;;;;;;26.25;11.80;;;8.10;99.90;;;;;;6700714;89;20212;-80
2021/10/10 23:26:26;;;;;;;22.95;11.35;;;8.00;99.90;;;;;;6697761;89;20569;-80
2021/10/10 23:36:26;;;;;;;20.45;11.60;;;8.20;99.90;;;;;;6702157;89;20186;-80
2021/10/10 23:46:28;;;;;;;21.77;11.35;;;8.10;99.90;;;;;;6697465;89;20252;-81
2021/10/10 23:56:28;;;;;;;34.53;16.33;;;7.90;99.90;;;;;;6712699;88;20401;-80
